sensor_id;sensor_type;location;lat;lon;timestamp;pressure;altitude;pressure_sealevel;temperature;humidity
72961;BME280;61141;46.204;19.774;2023-11-19T00:02:09;101071.91;;;2.84;100.00
72961;BME280;61141;46.204;19.774;2023-11-19T00:05:12;101074.72;;;2.79;100.00
72961;BME280;61141;46.204;19.774;2023-11-19T00:08:15;101054.25;;;2.59;100.00
72961;BME280;61141;46.204;19.774;2023-11-19T00:11:18;101042.91;;;2.11;100.00
72961;BME280;61141;46.204;19.774;2023-11-19T00:14:21;101035.28;;;2.00;100.00
72961;BME280;61141;46.204;19.774;2023-11-19T00:17:24;101043.84;;;2.20;100.00
72961;BME280;61141;46.204;19.774;2023-11-19T00:20:26;101047.59;;;2.06;100.00
72961;BME280;61141;46.204;19.774;2023-11-19T00:23:29;101046.75;;;2.24;100.00
72961;BME280;61141;46.204;19.774;2023-11-19T00:26:32;101060.72;;;2.45;100.00
72961;BME280;61141;46.204;19.774;2023-11-19T00:29:35;101057.59;;;2.37;100.00
72961;BME280;61141;46.204;19.774;2023-11-19T00:32:38;101043.31;;;2.37;100.00
72961;BME280;61141;46.204;19.774;2023-11-19T00:35:42;101050.34;;;2.19;100.00
72961;BME280;61141;46.204;19.774;2023-11-19T00:38:44;101056.38;;;2.30;100.00
72961;BME280;61141;46.204;19.774;2023-11-19T00:41:47;101056.78;;;2.23;100.00
72961;BME280;61141;46.204;19.774;2023-11-19T00:44:51;101062.19;;;2.23;100.00
72961;BME280;61141;46.204;19.774;2023-11-19T00:47:54;101062.28;;;2.00;100.00
72961;BME280;61141;46.204;19.774;2023-11-19T00:50:57;101059.66;;;1.95;100.00
72961;BME280;61141;46.204;19.774;2023-11-19T00:54:00;101065.75;;;1.87;100.00
72961;BME280;61141;46.204;19.774;2023-11-19T00:57:03;101049.91;;;1.99;100.00
72961;BME280;61141;46.204;19.774;2023-11-19T01:00:06;101043.19;;;1.77;100.00
72961;BME280;61141;46.204;19.774;2023-11-19T01:03:23;101035.81;;;1.83;100.00
72961;BME280;61141;46.204;19.774;2023-11-19T01:06:30;101041.38;;;1.73;100.00
72961;BME280;61141;46.204;19.774;2023-11-19T01:09:33;101044.00;;;1.41;100.00
72961;BME280;61141;46.204;19.774;2023-11-19T01:12:39;101048.19;;;1.52;100.00
72961;BME280;61141;46.204;19.774;2023-11-19T01:15:41;101049.34;;;1.64;100.00
72961;BME280;61141;46.204;19.774;2023-11-19T01:18:46;101029.13;;;1.62;100.00
72961;BME280;61141;46.204;19.774;2023-11-19T01:21:50;101037.44;;;1.47;100.00
72961;BME280;61141;46.204;19.774;2023-11-19T01:24:53;101041.31;;;1.59;100.00
72961;BME280;61141;46.204;19.774;2023-11-19T01:27:57;101049.16;;;1.74;100.00
72961;BME280;61141;46.204;19.774;2023-11-19T01:31:01;101044.97;;;1.68;100.00
72961;BME280;61141;46.204;19.774;2023-11-19T01:34:04;101047.13;;;1.66;100.00
72961;BME280;61141;46.204;19.774;2023-11-19T01:37:07;101047.25;;;1.94;100.00
72961;BME280;61141;46.204;19.774;2023-11-19T01:40:12;101029.00;;;1.86;100.00
72961;BME280;61141;46.204;19.774;2023-11-19T01:43:38;101030.44;;;1.64;100.00
72961;BME280;61141;46.204;19.774;2023-11-19T01:46:44;101034.16;;;1.68;100.00
72961;BME280;61141;46.204;19.774;2023-11-19T01:49:51;101043.94;;;1.64;100.00
72961;BME280;61141;46.204;19.774;2023-11-19T01:52:54;101047.63;;;1.50;100.00
72961;BME280;61141;46.204;19.774;2023-11-19T01:55:58;101045.91;;;1.59;100.00
72961;BME280;61141;46.204;19.774;2023-11-19T01:59:01;101037.44;;;1.47;100.00
72961;BME280;61141;46.204;19.774;2023-11-19T02:02:05;101028.91;;;1.40;100.00
72961;BME280;61141;46.204;19.774;2023-11-19T02:05:12;101020.72;;;1.45;100.00
72961;BME280;61141;46.204;19.774;2023-11-19T02:08:18;101024.06;;;1.55;100.00
72961;BME280;61141;46.204;19.774;2023-11-19T02:11:23;101031.38;;;1.36;100.00
72961;BME280;61141;46.204;19.774;2023-11-19T02:14:26;101026.06;;;1.31;100.00
72961;BME280;61141;46.204;19.774;2023-11-19T02:17:30;101028.44;;;1.14;100.00
72961;BME280;61141;46.204;19.774;2023-11-19T02:20:40;101024.16;;;1.13;100.00
72961;BME280;61141;46.204;19.774;2023-11-19T02:23:44;101030.22;;;1.00;100.00
72961;BME280;61141;46.204;19.774;2023-11-19T02:27:02;101024.16;;;1.13;100.00
72961;BME280;61141;46.204;19.774;2023-11-19T02:30:11;101026.44;;;1.43;100.00
72961;BME280;61141;46.204;19.774;2023-11-19T02:33:17;101019.84;;;1.31;100.00
72961;BME280;61141;46.204;19.774;2023-11-19T02:36:20;101013.13;;;1.09;100.00
72961;BME280;61141;46.204;19.774;2023-11-19T02:39:24;100996.84;;;0.96;100.00
72961;BME280;61141;46.204;19.774;2023-11-19T02:42:27;101003.25;;;1.00;100.00
72961;BME280;61141;46.204;19.774;2023-11-19T02:45:30;101001.50;;;0.67;100.00
72961;BME280;61141;46.204;19.774;2023-11-19T02:48:34;100999.69;;;0.62;100.00
72961;BME280;61141;46.204;19.774;2023-11-19T02:51:41;100991.75;;;0.71;100.00
72961;BME280;61141;46.204;19.774;2023-11-19T02:54:44;100997.09;;;0.76;100.00
72961;BME280;61141;46.204;19.774;2023-11-19T02:57:47;101003.88;;;1.15;100.00
72961;BME280;61141;46.204;19.774;2023-11-19T03:00:51;100998.72;;;0.95;100.00
72961;BME280;61141;46.204;19.774;2023-11-19T03:04:00;101007.13;;;0.94;100.00
72961;BME280;61141;46.204;19.774;2023-11-19T03:07:06;100992.47;;;1.00;100.00
72961;BME280;61141;46.204;19.774;2023-11-19T03:10:13;100988.91;;;1.04;100.00
72961;BME280;61141;46.204;19.774;2023-11-19T03:13:18;100990.81;;;1.04;100.00
72961;BME280;61141;46.204;19.774;2023-11-19T03:16:21;100991.97;;;0.98;100.00
72961;BME280;61141;46.204;19.774;2023-11-19T03:19:24;100995.22;;;0.95;100.00
72961;BME280;61141;46.204;19.774;2023-11-19T03:22:27;101009.75;;;0.75;100.00
72961;BME280;61141;46.204;19.774;2023-11-19T03:25:30;101002.59;;;0.66;100.00
72961;BME280;61141;46.204;19.774;2023-11-19T03:28:36;100991.44;;;0.77;100.00
72961;BME280;61141;46.204;19.774;2023-11-19T03:31:42;100986.56;;;0.98;100.00
72961;BME280;61141;46.204;19.774;2023-11-19T03:34:45;100966.34;;;0.77;100.00
72961;BME280;61141;46.204;19.774;2023-11-19T03:37:48;100971.09;;;0.85;100.00
72961;BME280;61141;46.204;19.774;2023-11-19T03:40:51;100957.06;;;1.06;100.00
72961;BME280;61141;46.204;19.774;2023-11-19T03:43:54;100962.53;;;1.20;100.00
72961;BME280;61141;46.204;19.774;2023-11-19T03:46:58;100969.81;;;1.01;100.00
72961;BME280;61141;46.204;19.774;2023-11-19T03:50:02;100971.34;;;0.88;100.00
72961;BME280;61141;46.204;19.774;2023-11-19T03:53:05;100963.50;;;0.87;100.00
72961;BME280;61141;46.204;19.774;2023-11-19T03:56:09;100952.50;;;0.83;100.00
72961;BME280;61141;46.204;19.774;2023-11-19T03:59:12;100960.97;;;0.77;100.00
72961;BME280;61141;46.204;19.774;2023-11-19T04:02:16;100944.25;;;0.75;100.00
72961;BME280;61141;46.204;19.774;2023-11-19T04:05:19;100941.63;;;0.70;100.00
72961;BME280;61141;46.204;19.774;2023-11-19T04:08:22;100926.81;;;0.67;100.00
72961;BME280;61141;46.204;19.774;2023-11-19T04:11:25;100947.41;;;0.82;100.00
72961;BME280;61141;46.204;19.774;2023-11-19T04:14:28;100965.19;;;0.83;100.00
72961;BME280;61141;46.204;19.774;2023-11-19T04:17:31;100978.91;;;0.39;100.00
72961;BME280;61141;46.204;19.774;2023-11-19T04:20:34;100967.34;;;0.10;100.00
72961;BME280;61141;46.204;19.774;2023-11-19T04:23:37;100961.59;;;0.45;100.00
72961;BME280;61141;46.204;19.774;2023-11-19T04:26:44;100960.22;;;0.24;100.00
72961;BME280;61141;46.204;19.774;2023-11-19T04:29:47;100961.53;;;0.26;100.00
72961;BME280;61141;46.204;19.774;2023-11-19T04:32:51;100947.81;;;0.23;100.00
72961;BME280;61141;46.204;19.774;2023-11-19T04:35:54;100940.03;;;0.21;100.00
72961;BME280;61141;46.204;19.774;2023-11-19T04:38:56;100935.91;;;0.29;100.00
72961;BME280;61141;46.204;19.774;2023-11-19T04:41:59;100936.34;;;0.12;100.00
72961;BME280;61141;46.204;19.774;2023-11-19T04:45:03;100928.91;;;0.04;100.00
72961;BME280;61141;46.204;19.774;2023-11-19T04:48:08;100920.03;;;0.51;100.00
72961;BME280;61141;46.204;19.774;2023-11-19T04:51:11;100931.22;;;0.39;100.00
72961;BME280;61141;46.204;19.774;2023-11-19T04:54:14;100937.12;;;0.41;100.00
72961;BME280;61141;46.204;19.774;2023-11-19T04:57:17;100941.25;;;0.34;100.00
72961;BME280;61141;46.204;19.774;2023-11-19T05:00:20;100944.53;;;0.54;100.00
72961;BME280;61141;46.204;19.774;2023-11-19T05:03:24;100937.28;;;0.26;100.00
72961;BME280;61141;46.204;19.774;2023-11-19T05:06:31;100920.72;;;0.14;100.00
72961;BME280;61141;46.204;19.774;2023-11-19T05:09:34;100913.50;;;0.33;100.00
72961;BME280;61141;46.204;19.774;2023-11-19T05:12:37;100907.47;;;0.18;100.00
72961;BME280;61141;46.204;19.774;2023-11-19T05:15:39;100902.94;;;0.37;100.00
72961;BME280;61141;46.204;19.774;2023-11-19T05:18:43;100901.19;;;0.27;100.00
72961;BME280;61141;46.204;19.774;2023-11-19T05:21:46;100900.25;;;0.37;100.00
72961;BME280;61141;46.204;19.774;2023-11-19T05:24:49;100903.19;;;0.40;100.00
72961;BME280;61141;46.204;19.774;2023-11-19T05:27:53;100905.88;;;0.17;100.00
72961;BME280;61141;46.204;19.774;2023-11-19T05:30:56;100911.72;;;0.24;100.00
72961;BME280;61141;46.204;19.774;2023-11-19T05:33:59;100909.47;;;0.31;100.00
72961;BME280;61141;46.204;19.774;2023-11-19T05:37:02;100908.53;;;0.22;100.00
72961;BME280;61141;46.204;19.774;2023-11-19T05:40:06;100923.06;;;-0.03;100.00
72961;BME280;61141;46.204;19.774;2023-11-19T05:43:17;100923.00;;;0.02;100.00
72961;BME280;61141;46.204;19.774;2023-11-19T05:46:20;100928.03;;;-0.15;100.00
72961;BME280;61141;46.204;19.774;2023-11-19T05:49:23;100927.44;;;-0.41;100.00
72961;BME280;61141;46.204;19.774;2023-11-19T05:52:26;100929.31;;;-0.41;100.00
72961;BME280;61141;46.204;19.774;2023-11-19T05:55:30;100942.00;;;-0.42;100.00
72961;BME280;61141;46.204;19.774;2023-11-19T05:58:33;100936.19;;;-0.25;100.00
72961;BME280;61141;46.204;19.774;2023-11-19T06:01:36;100935.09;;;0.05;100.00
72961;BME280;61141;46.204;19.774;2023-11-19T06:04:39;100922.59;;;-0.10;100.00
72961;BME280;61141;46.204;19.774;2023-11-19T06:07:42;100928.91;;;0.04;100.00
72961;BME280;61141;46.204;19.774;2023-11-19T06:10:45;100923.97;;;-0.13;100.00
72961;BME280;61141;46.204;19.774;2023-11-19T06:13:53;100925.47;;;-0.02;100.00
72961;BME280;61141;46.204;19.774;2023-11-19T06:16:55;100925.31;;;0.14;100.00
72961;BME280;61141;46.204;19.774;2023-11-19T06:19:58;100933.91;;;0.39;100.00
72961;BME280;61141;46.204;19.774;2023-11-19T06:23:01;100930.97;;;0.59;100.00
72961;BME280;61141;46.204;19.774;2023-11-19T06:26:04;100919.94;;;0.80;100.00
72961;BME280;61141;46.204;19.774;2023-11-19T06:29:07;100913.59;;;0.71;100.00
72961;BME280;61141;46.204;19.774;2023-11-19T06:32:10;100912.22;;;0.92;100.00
72961;BME280;61141;46.204;19.774;2023-11-19T06:35:17;100910.91;;;1.08;100.00
72961;BME280;61141;46.204;19.774;2023-11-19T06:38:20;100896.69;;;1.21;100.00
72961;BME280;61141;46.204;19.774;2023-11-19T06:41:23;100895.00;;;1.25;100.00
72961;BME280;61141;46.204;19.774;2023-11-19T06:44:25;100899.44;;;1.16;100.00
72961;BME280;61141;46.204;19.774;2023-11-19T06:47:28;100900.69;;;1.24;100.00
72961;BME280;61141;46.204;19.774;2023-11-19T06:50:32;100897.66;;;1.44;100.00
72961;BME280;61141;46.204;19.774;2023-11-19T06:53:35;100879.25;;;1.78;100.00
72961;BME280;61141;46.204;19.774;2023-11-19T06:56:38;100905.59;;;1.86;100.00
72961;BME280;61141;46.204;19.774;2023-11-19T06:59:42;100904.19;;;1.89;100.00
72961;BME280;61141;46.204;19.774;2023-11-19T07:02:45;100907.03;;;2.11;100.00
72961;BME280;61141;46.204;19.774;2023-11-19T07:05:48;100913.53;;;2.10;100.00
72961;BME280;61141;46.204;19.774;2023-11-19T07:08:51;100898.81;;;2.16;100.00
72961;BME280;61141;46.204;19.774;2023-11-19T07:11:54;100902.63;;;2.15;100.00
72961;BME280;61141;46.204;19.774;2023-11-19T07:14:56;100895.63;;;2.14;100.00
72961;BME280;61141;46.204;19.774;2023-11-19T07:17:59;100887.50;;;2.14;100.00
72961;BME280;61141;46.204;19.774;2023-11-19T07:21:04;100881.81;;;2.15;100.00
72961;BME280;61141;46.204;19.774;2023-11-19T07:24:08;100884.09;;;2.08;100.00
72961;BME280;61141;46.204;19.774;2023-11-19T07:27:10;100882.41;;;2.12;100.00
72961;BME280;61141;46.204;19.774;2023-11-19T07:30:13;100893.03;;;2.22;100.00
72961;BME280;61141;46.204;19.774;2023-11-19T07:33:16;100892.41;;;2.39;100.00
72961;BME280;61141;46.204;19.774;2023-11-19T07:36:19;100884.81;;;2.90;100.00
72961;BME280;61141;46.204;19.774;2023-11-19T07:39:22;100874.41;;;2.97;100.00
72961;BME280;61141;46.204;19.774;2023-11-19T07:42:25;100867.84;;;2.98;100.00
72961;BME280;61141;46.204;19.774;2023-11-19T07:45:27;100864.56;;;3.24;100.00
72961;BME280;61141;46.204;19.774;2023-11-19T07:48:30;100878.09;;;3.24;100.00
72961;BME280;61141;46.204;19.774;2023-11-19T07:51:33;100878.09;;;3.46;100.00
72961;BME280;61141;46.204;19.774;2023-11-19T07:54:36;100879.22;;;3.45;100.00
72961;BME280;61141;46.204;19.774;2023-11-19T07:57:39;100876.72;;;3.57;100.00
72961;BME280;61141;46.204;19.774;2023-11-19T08:00:42;100870.13;;;3.72;100.00
72961;BME280;61141;46.204;19.774;2023-11-19T08:03:45;100874.13;;;3.74;100.00
72961;BME280;61141;46.204;19.774;2023-11-19T08:06:51;100866.72;;;3.88;100.00
72961;BME280;61141;46.204;19.774;2023-11-19T08:09:56;100868.16;;;3.86;100.00
72961;BME280;61141;46.204;19.774;2023-11-19T08:12:59;100869.84;;;4.12;100.00
72961;BME280;61141;46.204;19.774;2023-11-19T08:16:02;100862.56;;;4.22;99.17
72961;BME280;61141;46.204;19.774;2023-11-19T08:19:05;100850.34;;;4.41;98.64
72961;BME280;61141;46.204;19.774;2023-11-19T08:22:08;100851.00;;;4.55;98.20
72961;BME280;61141;46.204;19.774;2023-11-19T08:25:11;100846.09;;;4.83;96.68
72961;BME280;61141;46.204;19.774;2023-11-19T08:28:14;100842.72;;;4.95;95.41
72961;BME280;61141;46.204;19.774;2023-11-19T08:31:17;100848.97;;;5.12;94.64
72961;BME280;61141;46.204;19.774;2023-11-19T08:34:20;100860.91;;;5.37;92.93
72961;BME280;61141;46.204;19.774;2023-11-19T08:37:23;100850.50;;;5.48;91.95
72961;BME280;61141;46.204;19.774;2023-11-19T08:40:29;100861.38;;;5.48;91.87
72961;BME280;61141;46.204;19.774;2023-11-19T08:43:34;100858.34;;;5.58;90.71
72961;BME280;61141;46.204;19.774;2023-11-19T08:46:37;100869.53;;;5.56;91.56
72961;BME280;61141;46.204;19.774;2023-11-19T08:49:40;100870.47;;;5.69;91.01
72961;BME280;61141;46.204;19.774;2023-11-19T08:52:43;100861.81;;;5.75;91.09
72961;BME280;61141;46.204;19.774;2023-11-19T08:55:45;100848.56;;;5.74;90.07
72961;BME280;61141;46.204;19.774;2023-11-19T08:58:48;100833.00;;;5.91;89.61
72961;BME280;61141;46.204;19.774;2023-11-19T09:01:51;100840.59;;;6.15;88.25
72961;BME280;61141;46.204;19.774;2023-11-19T09:04:54;100851.88;;;6.26;88.41
72961;BME280;61141;46.204;19.774;2023-11-19T09:07:57;100846.75;;;6.24;87.26
72961;BME280;61141;46.204;19.774;2023-11-19T09:11:00;100837.16;;;5.89;86.95
72961;BME280;61141;46.204;19.774;2023-11-19T09:14:02;100843.56;;;6.22;86.74
72961;BME280;61141;46.204;19.774;2023-11-19T09:17:07;100841.88;;;6.38;86.74
72961;BME280;61141;46.204;19.774;2023-11-19T09:20:10;100840.78;;;6.39;85.93
72961;BME280;61141;46.204;19.774;2023-11-19T09:23:17;100834.75;;;6.55;84.90
72961;BME280;61141;46.204;19.774;2023-11-19T09:26:20;100819.16;;;6.64;84.81
72961;BME280;61141;46.204;19.774;2023-11-19T09:29:23;100812.31;;;6.58;83.52
72961;BME280;61141;46.204;19.774;2023-11-19T09:32:26;100804.62;;;6.60;82.45
72961;BME280;61141;46.204;19.774;2023-11-19T09:35:29;100787.81;;;6.58;82.96
72961;BME280;61141;46.204;19.774;2023-11-19T09:38:32;100787.97;;;6.82;82.18
72961;BME280;61141;46.204;19.774;2023-11-19T09:41:35;100787.25;;;6.73;81.67
72961;BME280;61141;46.204;19.774;2023-11-19T09:44:38;100770.75;;;6.69;81.33
72961;BME280;61141;46.204;19.774;2023-11-19T09:47:43;100772.87;;;6.64;81.90
72961;BME280;61141;46.204;19.774;2023-11-19T09:50:48;100761.34;;;6.46;81.88
72961;BME280;61141;46.204;19.774;2023-11-19T09:53:52;100762.87;;;6.56;81.05
72961;BME280;61141;46.204;19.774;2023-11-19T09:56:57;100755.66;;;6.60;81.33
72961;BME280;61141;46.204;19.774;2023-11-19T10:00:07;100771.50;;;6.58;81.46
72961;BME280;61141;46.204;19.774;2023-11-19T10:03:11;100768.31;;;6.56;80.55
72961;BME280;61141;46.204;19.774;2023-11-19T10:06:15;100764.25;;;6.62;80.11
72961;BME280;61141;46.204;19.774;2023-11-19T10:09:19;100759.34;;;6.76;80.48
72961;BME280;61141;46.204;19.774;2023-11-19T10:12:21;100764.94;;;6.59;79.28
72961;BME280;61141;46.204;19.774;2023-11-19T10:15:25;100754.03;;;6.79;79.99
72961;BME280;61141;46.204;19.774;2023-11-19T10:18:30;100756.00;;;6.91;79.22
72961;BME280;61141;46.204;19.774;2023-11-19T10:21:33;100742.66;;;6.98;78.51
72961;BME280;61141;46.204;19.774;2023-11-19T10:24:36;100755.19;;;7.11;78.17
72961;BME280;61141;46.204;19.774;2023-11-19T10:27:45;100766.88;;;7.12;77.40
72961;BME280;61141;46.204;19.774;2023-11-19T10:30:48;100751.78;;;7.14;78.14
72961;BME280;61141;46.204;19.774;2023-11-19T10:33:52;100726.91;;;7.16;77.64
72961;BME280;61141;46.204;19.774;2023-11-19T10:36:55;100733.91;;;7.37;78.62
72961;BME280;61141;46.204;19.774;2023-11-19T10:39:58;100733.44;;;7.35;78.01
72961;BME280;61141;46.204;19.774;2023-11-19T10:43:04;100726.66;;;7.53;76.10
72961;BME280;61141;46.204;19.774;2023-11-19T10:46:11;100740.62;;;7.76;76.36
72961;BME280;61141;46.204;19.774;2023-11-19T10:49:14;100720.09;;;7.79;75.30
72961;BME280;61141;46.204;19.774;2023-11-19T10:52:18;100721.69;;;7.67;73.92
72961;BME280;61141;46.204;19.774;2023-11-19T10:55:37;100717.00;;;7.68;74.74
72961;BME280;61141;46.204;19.774;2023-11-19T10:58:44;100714.41;;;7.72;72.00
72961;BME280;61141;46.204;19.774;2023-11-19T11:01:50;100706.78;;;7.89;72.66
72961;BME280;61141;46.204;19.774;2023-11-19T11:04:56;100698.13;;;7.87;70.97
72961;BME280;61141;46.204;19.774;2023-11-19T11:08:00;100688.03;;;8.00;71.51
72961;BME280;61141;46.204;19.774;2023-11-19T11:11:03;100664.28;;;8.00;73.03
72961;BME280;61141;46.204;19.774;2023-11-19T11:14:07;100684.56;;;8.15;72.83
72961;BME280;61141;46.204;19.774;2023-11-19T11:17:17;100688.34;;;8.10;71.96
72961;BME280;61141;46.204;19.774;2023-11-19T11:20:20;100705.37;;;8.32;70.74
72961;BME280;61141;46.204;19.774;2023-11-19T11:27:19;100684.56;;;8.27;69.38
72961;BME280;61141;46.204;19.774;2023-11-19T11:33:46;100687.78;;;7.93;68.21
72961;BME280;61141;46.204;19.774;2023-11-19T11:40:17;100682.56;;;7.88;70.62
72961;BME280;61141;46.204;19.774;2023-11-19T11:43:44;100675.75;;;7.94;70.16
72961;BME280;61141;46.204;19.774;2023-11-19T11:46:53;100682.69;;;8.03;68.34
72961;BME280;61141;46.204;19.774;2023-11-19T11:49:56;100684.16;;;8.01;69.39
72961;BME280;61141;46.204;19.774;2023-11-19T11:53:16;100670.06;;;7.99;68.41
72961;BME280;61141;46.204;19.774;2023-11-19T11:56:19;100660.75;;;8.00;68.63
72961;BME280;61141;46.204;19.774;2023-11-19T11:59:23;100673.22;;;8.13;68.80
72961;BME280;61141;46.204;19.774;2023-11-19T12:02:26;100672.97;;;8.18;66.05
72961;BME280;61141;46.204;19.774;2023-11-19T12:05:29;100670.72;;;8.20;66.79
72961;BME280;61141;46.204;19.774;2023-11-19T12:08:34;100653.44;;;8.16;66.50
72961;BME280;61141;46.204;19.774;2023-11-19T12:12:20;100643.87;;;8.10;66.49
72961;BME280;61141;46.204;19.774;2023-11-19T12:15:23;100631.41;;;7.97;65.42
72961;BME280;61141;46.204;19.774;2023-11-19T12:18:30;100623.25;;;7.97;65.57
72961;BME280;61141;46.204;19.774;2023-11-19T12:21:34;100603.59;;;7.91;67.24
72961;BME280;61141;46.204;19.774;2023-11-19T12:24:40;100625.41;;;7.91;67.26
72961;BME280;61141;46.204;19.774;2023-11-19T12:27:47;100620.50;;;7.97;67.04
72961;BME280;61141;46.204;19.774;2023-11-19T12:30:50;100616.91;;;7.81;68.43
72961;BME280;61141;46.204;19.774;2023-11-19T12:33:54;100620.75;;;7.92;68.28
72961;BME280;61141;46.204;19.774;2023-11-19T12:36:57;100618.22;;;7.99;67.60
72961;BME280;61141;46.204;19.774;2023-11-19T12:40:00;100613.25;;;8.01;66.60
72961;BME280;61141;46.204;19.774;2023-11-19T12:43:08;100603.41;;;8.12;67.98
72961;BME280;61141;46.204;19.774;2023-11-19T12:46:21;100595.56;;;8.10;67.33
72961;BME280;61141;46.204;19.774;2023-11-19T12:49:24;100581.78;;;8.19;67.50
72961;BME280;61141;46.204;19.774;2023-11-19T12:52:27;100583.94;;;8.25;67.38
72961;BME280;61141;46.204;19.774;2023-11-19T12:55:30;100594.28;;;8.32;66.72
72961;BME280;61141;46.204;19.774;2023-11-19T12:58:35;100581.34;;;8.17;66.06
72961;BME280;61141;46.204;19.774;2023-11-19T13:01:39;100577.28;;;8.11;66.96
72961;BME280;61141;46.204;19.774;2023-11-19T13:04:43;100569.34;;;8.06;68.37
72961;BME280;61141;46.204;19.774;2023-11-19T13:07:46;100577.03;;;8.16;68.37
72961;BME280;61141;46.204;19.774;2023-11-19T13:10:50;100578.69;;;8.20;68.97
72961;BME280;61141;46.204;19.774;2023-11-19T13:14:02;100569.75;;;8.20;67.89
72961;BME280;61141;46.204;19.774;2023-11-19T13:17:07;100569.22;;;8.42;69.36
72961;BME280;61141;46.204;19.774;2023-11-19T13:20:11;100554.41;;;8.43;68.02
72961;BME280;61141;46.204;19.774;2023-11-19T13:23:16;100544.66;;;8.42;67.40
72961;BME280;61141;46.204;19.774;2023-11-19T13:26:22;100533.22;;;8.24;68.63
72961;BME280;61141;46.204;19.774;2023-11-19T13:29:25;100533.66;;;8.26;69.58
72961;BME280;61141;46.204;19.774;2023-11-19T13:32:30;100539.34;;;8.34;69.81
72961;BME280;61141;46.204;19.774;2023-11-19T13:35:33;100534.88;;;8.13;70.42
72961;BME280;61141;46.204;19.774;2023-11-19T13:38:36;100530.00;;;8.07;70.96
72961;BME280;61141;46.204;19.774;2023-11-19T13:41:39;100530.78;;;8.07;72.12
72961;BME280;61141;46.204;19.774;2023-11-19T13:44:42;100515.88;;;7.89;72.27
72961;BME280;61141;46.204;19.774;2023-11-19T13:47:45;100504.66;;;7.79;72.67
72961;BME280;61141;46.204;19.774;2023-11-19T13:50:49;100501.53;;;7.64;73.17
72961;BME280;61141;46.204;19.774;2023-11-19T13:53:52;100500.31;;;7.50;73.05
72961;BME280;61141;46.204;19.774;2023-11-19T13:56:55;100515.06;;;7.49;73.96
72961;BME280;61141;46.204;19.774;2023-11-19T14:00:03;100501.13;;;7.50;74.20
72961;BME280;61141;46.204;19.774;2023-11-19T14:03:13;100510.41;;;7.49;73.93
72961;BME280;61141;46.204;19.774;2023-11-19T14:06:16;100497.69;;;7.53;74.22
72961;BME280;61141;46.204;19.774;2023-11-19T14:09:19;100506.62;;;7.66;74.04
72961;BME280;61141;46.204;19.774;2023-11-19T14:12:22;100503.59;;;7.55;74.26
72961;BME280;61141;46.204;19.774;2023-11-19T14:15:25;100498.16;;;7.55;74.46
72961;BME280;61141;46.204;19.774;2023-11-19T14:18:27;100499.97;;;7.51;75.64
72961;BME280;61141;46.204;19.774;2023-11-19T14:21:30;100500.19;;;7.46;75.17
72961;BME280;61141;46.204;19.774;2023-11-19T14:24:34;100507.25;;;7.47;75.83
72961;BME280;61141;46.204;19.774;2023-11-19T14:27:39;100504.78;;;7.42;76.69
72961;BME280;61141;46.204;19.774;2023-11-19T14:30:42;100505.47;;;7.27;77.36
72961;BME280;61141;46.204;19.774;2023-11-19T14:33:45;100503.66;;;7.31;78.66
72961;BME280;61141;46.204;19.774;2023-11-19T14:36:48;100490.47;;;7.33;78.79
72961;BME280;61141;46.204;19.774;2023-11-19T14:39:52;100491.59;;;7.32;79.70
72961;BME280;61141;46.204;19.774;2023-11-19T14:42:54;100484.03;;;7.26;79.98
72961;BME280;61141;46.204;19.774;2023-11-19T14:45:57;100484.59;;;7.19;79.93
72961;BME280;61141;46.204;19.774;2023-11-19T14:49:00;100485.16;;;7.12;80.43
72961;BME280;61141;46.204;19.774;2023-11-19T14:52:04;100486.88;;;7.05;80.89
72961;BME280;61141;46.204;19.774;2023-11-19T14:55:10;100472.59;;;6.84;81.56
72961;BME280;61141;46.204;19.774;2023-11-19T14:58:14;100492.34;;;6.93;81.89
72961;BME280;61141;46.204;19.774;2023-11-19T15:01:19;100490.06;;;6.83;82.45
72961;BME280;61141;46.204;19.774;2023-11-19T15:04:22;100479.53;;;6.81;82.87
72961;BME280;61141;46.204;19.774;2023-11-19T15:07:25;100469.62;;;6.77;83.01
72961;BME280;61141;46.204;19.774;2023-11-19T15:10:28;100489.50;;;6.77;83.97
72961;BME280;61141;46.204;19.774;2023-11-19T15:13:30;100486.09;;;6.68;84.31
72961;BME280;61141;46.204;19.774;2023-11-19T15:16:35;100459.44;;;6.62;84.65
72961;BME280;61141;46.204;19.774;2023-11-19T15:19:38;100480.06;;;6.75;85.07
72961;BME280;61141;46.204;19.774;2023-11-19T15:22:41;100480.75;;;6.72;85.35
72961;BME280;61141;46.204;19.774;2023-11-19T15:25:45;100468.31;;;6.71;86.18
72961;BME280;61141;46.204;19.774;2023-11-19T15:28:48;100475.78;;;6.74;86.31
72961;BME280;61141;46.204;19.774;2023-11-19T15:31:51;100462.19;;;6.74;86.72
72961;BME280;61141;46.204;19.774;2023-11-19T15:34:54;100451.97;;;6.71;87.30
72961;BME280;61141;46.204;19.774;2023-11-19T15:37:57;100453.87;;;6.70;87.10
72961;BME280;61141;46.204;19.774;2023-11-19T15:41:00;100449.34;;;6.62;87.30
72961;BME280;61141;46.204;19.774;2023-11-19T15:44:05;100466.56;;;6.66;87.71
72961;BME280;61141;46.204;19.774;2023-11-19T15:47:09;100457.84;;;6.61;87.52
72961;BME280;61141;46.204;19.774;2023-11-19T15:50:15;100463.97;;;6.58;87.81
72961;BME280;61141;46.204;19.774;2023-11-19T15:53:18;100451.94;;;6.59;88.66
72961;BME280;61141;46.204;19.774;2023-11-19T15:56:21;100435.41;;;6.52;87.94
72961;BME280;61141;46.204;19.774;2023-11-19T15:59:24;100450.84;;;6.60;88.11
72961;BME280;61141;46.204;19.774;2023-11-19T16:02:27;100467.59;;;6.62;88.28
72961;BME280;61141;46.204;19.774;2023-11-19T16:05:30;100454.47;;;6.52;88.43
72961;BME280;61141;46.204;19.774;2023-11-19T16:08:33;100459.41;;;6.49;88.95